Time;durP1;ratioP1;P1;durP2;ratioP2;P2;SDS_P1;SDS_P2;PMS_P1;PMS_P2;Temp;Humidity;BMP_temperature;BMP_pressure;BME280_temperature;BME280_humidity;BME280_pressure;Samples;Min_cycle;Max_cycle;Signal;HPM_P1;HPM_P2
2023/03/17 00:01:54;;;;;;;17.45;5.35;;;;;;;8.18;63.56;100642.78;5043126;28;20037;-74
2023/03/17 00:04:23;;;;;;;14.68;4.50;;;;;;;8.17;63.40;100657.16;5044859;28;20384;-74
2023/03/17 00:06:48;;;;;;;18.13;5.40;;;;;;;8.16;63.84;100660.78;5042206;28;20033;-74
2023/03/17 00:09:15;;;;;;;19.23;6.25;;;;;;;8.13;64.45;100650.28;5040460;28;20029;-74
2023/03/17 00:11:42;;;;;;;22.70;7.18;;;;;;;8.12;64.31;100653.06;5041830;28;20056;-74
2023/03/17 00:14:08;;;;;;;18.65;5.85;;;;;;;8.09;64.61;100659.47;5044634;28;20033;-74
2023/03/17 00:16:38;;;;;;;16.55;5.28;;;;;;;8.03;65.93;100651.84;5043690;28;20463;-74
2023/03/17 00:19:03;;;;;;;21.23;6.47;;;;;;;7.99;64.73;100636.94;5043935;28;20138;-74
2023/03/17 00:21:34;;;;;;;18.38;5.55;;;;;;;7.96;64.67;100631.78;5043094;28;20036;-74
2023/03/17 00:24:00;;;;;;;16.85;5.03;;;;;;;7.95;64.85;100622.91;5045058;28;20449;-74
2023/03/17 00:26:26;;;;;;;15.30;4.88;;;;;;;7.93;64.74;100615.94;5040850;28;20147;-74
2023/03/17 00:28:53;;;;;;;14.52;5.38;;;;;;;7.91;65.08;100605.34;5042903;28;20036;-74
2023/03/17 00:31:24;;;;;;;15.68;5.22;;;;;;;7.91;65.14;100607.16;5041860;28;20040;-74
2023/03/17 00:33:51;;;;;;;12.77;4.25;;;;;;;7.90;64.89;100608.97;5042809;28;20107;-74
2023/03/17 00:36:22;;;;;;;18.95;6.05;;;;;;;7.87;65.13;100607.34;5050597;28;20300;-74
2023/03/17 00:38:49;;;;;;;22.90;6.20;;;;;;;7.85;64.85;100611.09;5051702;28;20089;-74
2023/03/17 00:41:14;;;;;;;18.80;5.80;;;;;;;7.84;65.21;100612.06;5061451;28;20032;-74
2023/03/17 00:43:40;;;;;;;19.13;5.97;;;;;;;7.83;65.55;100613.00;5052531;28;20301;-74
2023/03/17 00:46:26;;;;;;;19.67;6.43;;;;;;;7.85;65.38;100603.06;5038731;28;20067;-74
2023/03/17 00:48:53;;;;;;;13.90;4.68;;;;;;;7.84;65.22;100601.34;5054375;28;20115;-74
2023/03/17 00:51:18;;;;;;;17.75;4.82;;;;;;;7.84;65.46;100609.38;5056317;28;20020;-74
2023/03/17 00:53:44;;;;;;;22.45;5.18;;;;;;;7.84;65.69;100606.69;5044867;28;20063;-74
2023/03/17 00:56:18;;;;;;;16.00;5.10;;;;;;;7.84;65.36;100596.00;5048612;28;20076;-74
2023/03/17 00:58:44;;;;;;;16.27;4.40;;;;;;;7.82;65.73;100600.59;5053606;28;20354;-74
2023/03/17 01:01:09;;;;;;;16.63;5.25;;;;;;;7.81;65.87;100599.72;5048562;28;20029;-74
2023/03/17 01:03:36;;;;;;;16.50;4.57;;;;;;;7.81;65.64;100596.19;5060745;28;20029;-74
2023/03/17 01:06:03;;;;;;;12.93;4.18;;;;;;;7.78;65.90;100602.59;5061001;28;20028;-74
2023/03/17 01:08:30;;;;;;;14.82;4.03;;;;;;;7.77;65.79;100600.03;5064377;28;20051;-74
2023/03/17 01:10:56;;;;;;;15.30;4.45;;;;;;;7.74;65.94;100600.25;5061477;28;20119;-74
2023/03/17 01:13:22;;;;;;;12.57;3.78;;;;;;;7.74;66.06;100600.25;5055629;28;20108;-74
2023/03/17 01:15:49;;;;;;;12.80;3.83;;;;;;;7.71;66.20;100598.63;5060003;28;20025;-74
2023/03/17 01:18:17;;;;;;;13.23;3.83;;;;;;;7.68;65.89;100597.00;5056933;28;20163;-74
2023/03/17 01:20:42;;;;;;;15.45;4.70;;;;;;;7.67;66.08;100592.63;5053015;28;20341;-74
2023/03/17 01:23:09;;;;;;;14.65;4.43;;;;;;;7.66;65.91;100590.06;5058890;28;20020;-74
2023/03/17 01:25:37;;;;;;;15.85;4.22;;;;;;;7.62;66.52;100584.03;5057455;28;20163;-74
2023/03/17 01:28:03;;;;;;;19.17;4.82;;;;;;;7.61;66.20;100584.97;5054822;28;20025;-74
2023/03/17 01:30:36;;;;;;;12.88;4.15;;;;;;;7.55;67.18;100580.03;5053443;28;20082;-74
2023/03/17 01:33:01;;;;;;;14.45;4.28;;;;;;;7.53;67.25;100593.50;5057815;28;20025;-74
2023/03/17 01:35:30;;;;;;;16.58;4.35;;;;;;;7.52;66.98;100586.44;5050532;28;20021;-74
2023/03/17 01:37:56;;;;;;;14.00;4.15;;;;;;;7.52;67.11;100585.59;5048858;28;20063;-74
2023/03/17 01:40:33;;;;;;;12.82;3.83;;;;;;;7.51;67.54;100575.84;5060365;28;20390;-74
2023/03/17 01:43:03;;;;;;;13.15;3.85;;;;;;;7.49;67.30;100575.09;5049774;28;20144;-74
2023/03/17 01:46:06;;;;;;;16.20;4.85;;;;;;;7.49;67.25;100572.41;5052155;28;20025;-74
2023/03/17 01:48:36;;;;;;;14.45;4.18;;;;;;;7.44;67.50;100577.22;5043277;28;20033;-74
2023/03/17 01:51:03;;;;;;;12.82;3.95;;;;;;;7.39;67.54;100579.31;5049617;28;20043;-74
2023/03/17 01:53:28;;;;;;;12.40;3.65;;;;;;;7.37;67.36;100570.53;5047370;28;20017;-74
2023/03/17 01:55:56;;;;;;;14.55;3.80;;;;;;;7.35;67.45;100567.97;5040293;28;20090;-74
2023/03/17 01:58:23;;;;;;;11.02;3.83;;;;;;;7.34;67.81;100560.91;5041635;28;20052;-74
2023/03/17 02:00:49;;;;;;;13.80;3.95;;;;;;;7.33;67.93;100560.03;5056024;28;20044;-73
2023/03/17 02:03:15;;;;;;;13.80;4.15;;;;;;;7.31;67.96;100558.44;5056133;28;20055;-73
2023/03/17 02:05:41;;;;;;;12.85;4.22;;;;;;;7.30;67.93;100549.53;5043953;28;20022;-74
2023/03/17 02:08:15;;;;;;;13.82;4.18;;;;;;;7.31;67.38;100550.41;5054691;28;20107;-73
2023/03/17 02:10:41;;;;;;;14.23;4.50;;;;;;;7.30;68.04;100549.53;5046064;28;20056;-73
2023/03/17 02:13:09;;;;;;;13.25;4.40;;;;;;;7.30;67.63;100541.50;5052612;28;20035;-74
2023/03/17 02:15:49;;;;;;;12.85;4.13;;;;;;;7.30;67.60;100536.16;5048579;28;20057;-74
2023/03/17 02:18:17;;;;;;;12.23;3.70;;;;;;;7.31;67.50;100539.72;5039685;28;20044;-73
2023/03/17 02:20:46;;;;;;;17.25;4.47;;;;;;;7.31;67.39;100545.91;5056126;28;20032;-73
2023/03/17 02:23:15;;;;;;;15.95;4.60;;;;;;;7.32;67.85;100539.63;5058819;28;20017;-73
2023/03/17 02:25:43;;;;;;;15.27;3.85;;;;;;;7.32;67.73;100536.94;5056789;28;20035;-73
2023/03/17 02:28:17;;;;;;;14.65;4.03;;;;;;;7.35;67.24;100535.88;5048743;28;20075;-73
2023/03/17 02:30:43;;;;;;;14.57;4.15;;;;;;;7.37;67.24;100530.44;5048658;28;20035;-73
2023/03/17 02:33:10;;;;;;;18.13;4.30;;;;;;;7.36;67.11;100521.53;5044708;28;20013;-74
2023/03/17 02:35:36;;;;;;;14.68;4.22;;;;;;;7.38;67.26;100518.78;5052983;28;20017;-73
2023/03/17 02:38:01;;;;;;;15.98;4.43;;;;;;;7.38;67.01;100524.13;5052938;28;20475;-73
2023/03/17 02:40:27;;;;;;;18.50;5.13;;;;;;;7.38;67.22;100518.78;5049357;28;20048;-73
2023/03/17 02:42:53;;;;;;;16.65;4.70;;;;;;;7.40;67.77;100512.38;5043781;28;20127;-73
2023/03/17 02:45:18;;;;;;;15.73;4.50;;;;;;;7.39;67.04;100516.00;5043411;28;20017;-73
2023/03/17 02:47:44;;;;;;;20.67;4.25;;;;;;;7.40;67.11;100512.38;5055490;28;20357;-73
2023/03/17 02:50:20;;;;;;;12.38;4.05;;;;;;;7.41;67.10;100513.22;5051622;28;20420;-73
2023/03/17 02:52:45;;;;;;;13.82;4.18;;;;;;;7.40;66.93;100509.69;5063382;28;20073;-74
2023/03/17 02:55:10;;;;;;;16.80;4.68;;;;;;;7.40;67.21;100509.69;5047037;28;20025;-73
2023/03/17 02:57:36;;;;;;;17.08;4.95;;;;;;;7.38;67.03;100508.94;5051182;28;20020;-74
2023/03/17 03:00:02;;;;;;;17.00;4.50;;;;;;;7.38;66.54;100513.44;5052883;28;20045;-73
2023/03/17 03:02:27;;;;;;;13.32;4.00;;;;;;;7.37;67.43;100511.72;5048644;28;20052;-73
2023/03/17 03:04:53;;;;;;;16.27;4.38;;;;;;;7.37;67.05;100514.41;5055429;28;20025;-73
2023/03/17 03:07:18;;;;;;;20.13;4.50;;;;;;;7.35;67.24;100519.84;5049328;28;20044;-73
2023/03/17 03:09:43;;;;;;;11.15;3.80;;;;;;;7.34;66.93;100510.94;5062897;28;20031;-73
2023/03/17 03:12:09;;;;;;;13.20;3.22;;;;;;;7.33;67.23;100511.91;5063827;28;20021;-73
2023/03/17 03:14:35;;;;;;;13.70;4.35;;;;;;;7.35;67.12;100512.69;5060710;28;20039;-73
2023/03/17 03:17:01;;;;;;;13.93;3.70;;;;;;;7.35;66.95;100510.00;5047827;28;20026;-73
2023/03/17 03:19:27;;;;;;;14.93;4.40;;;;;;;7.37;66.57;100517.06;5063959;28;20060;-73
2023/03/17 03:21:52;;;;;;;13.73;3.85;;;;;;;7.37;67.19;100520.59;5058129;28;20153;-74
2023/03/17 03:24:17;;;;;;;14.57;4.28;;;;;;;7.38;67.13;100525.00;5057525;28;20083;-74
2023/03/17 03:26:43;;;;;;;12.32;4.20;;;;;;;7.38;66.57;100525.00;5058664;28;20034;-74
2023/03/17 03:29:08;;;;;;;13.75;4.25;;;;;;;7.40;66.40;100527.56;5055998;28;20029;-74
2023/03/17 03:31:33;;;;;;;11.15;3.65;;;;;;;7.40;66.47;100524.91;5053743;28;20108;-74
2023/03/17 03:33:59;;;;;;;15.75;3.90;;;;;;;7.40;66.67;100514.19;5050303;28;20029;-74
2023/03/17 03:36:25;;;;;;;14.73;3.85;;;;;;;7.39;66.13;100509.81;5054969;28;20025;-74
2023/03/17 03:38:51;;;;;;;16.00;4.00;;;;;;;7.39;67.07;100525.84;5060552;28;20021;-74
2023/03/17 03:41:16;;;;;;;13.80;3.80;;;;;;;7.37;66.88;100531.28;5050503;28;20097;-74
2023/03/17 03:43:41;;;;;;;14.43;4.03;;;;;;;7.38;67.05;100529.47;5047861;28;20040;-74
2023/03/17 03:46:07;;;;;;;8.60;3.60;;;;;;;7.37;66.64;100522.44;5036559;28;20060;-74
2023/03/17 03:48:32;;;;;;;15.55;3.95;;;;;;;7.38;66.82;100543.72;5038359;28;20416;-74
2023/03/17 03:50:59;;;;;;;12.52;3.70;;;;;;;7.36;67.42;100532.25;5050141;28;20111;-74
2023/03/17 03:53:26;;;;;;;12.80;3.58;;;;;;;7.37;66.83;100522.44;5059915;28;20027;-74
2023/03/17 03:55:52;;;;;;;11.63;3.70;;;;;;;7.38;66.30;100542.84;5041566;28;20033;-74
2023/03/17 03:58:17;;;;;;;16.92;4.38;;;;;;;7.38;66.36;100545.50;5065580;28;20024;-74
2023/03/17 04:00:42;;;;;;;11.57;3.22;;;;;;;7.37;66.55;100541.13;5047624;28;20543;-74
2023/03/17 04:03:08;;;;;;;22.70;4.45;;;;;;;7.36;66.53;100540.25;5036893;28;20036;-74
2023/03/17 04:05:33;;;;;;;12.18;3.42;;;;;;;7.37;65.94;100543.81;5056808;28;20082;-74
2023/03/17 04:07:59;;;;;;;11.80;3.55;;;;;;;7.36;66.66;100542.94;5059836;28;20032;-74
2023/03/17 04:10:24;;;;;;;16.35;4.07;;;;;;;7.33;66.12;100541.31;5046576;28;20021;-74
2023/03/17 04:12:49;;;;;;;13.43;3.88;;;;;;;7.35;65.81;100543.91;5048985;28;20060;-74
2023/03/17 04:15:17;;;;;;;11.88;3.70;;;;;;;7.34;66.12;100545.72;5056686;28;20082;-74
2023/03/17 04:17:43;;;;;;;13.18;4.00;;;;;;;7.34;66.24;100544.88;5047799;28;20328;-74
2023/03/17 04:20:10;;;;;;;13.27;3.30;;;;;;;7.33;66.08;100543.97;5060938;28;20032;-74
2023/03/17 04:22:35;;;;;;;11.70;3.55;;;;;;;7.33;66.34;100549.31;5056465;28;20040;-74
2023/03/17 04:25:01;;;;;;;13.43;3.70;;;;;;;7.34;66.59;100552.88;5054148;28;20029;-74
2023/03/17 04:27:27;;;;;;;12.65;3.20;;;;;;;7.32;67.24;100552.97;5062818;28;20552;-74
2023/03/17 04:29:52;;;;;;;10.55;3.30;;;;;;;7.30;66.63;100549.53;5054018;28;20111;-74
2023/03/17 04:32:17;;;;;;;14.48;3.60;;;;;;;7.31;66.62;100550.41;5052410;28;20518;-74
2023/03/17 04:34:43;;;;;;;13.05;3.33;;;;;;;7.29;66.76;100547.84;5050173;28;20025;-74
2023/03/17 04:37:09;;;;;;;11.32;3.42;;;;;;;7.27;67.13;100544.38;5052781;28;20387;-74
2023/03/17 04:39:35;;;;;;;11.93;3.65;;;;;;;7.25;66.54;100546.31;5051734;28;20040;-74
2023/03/17 04:42:01;;;;;;;11.38;3.58;;;;;;;7.25;67.26;100554.34;5049559;28;20040;-74
2023/03/17 04:44:26;;;;;;;13.77;3.72;;;;;;;7.23;67.38;100547.34;5050234;28;20041;-74
2023/03/17 04:46:52;;;;;;;10.80;3.30;;;;;;;7.21;66.62;100550.13;5054571;28;20353;-74
2023/03/17 04:49:17;;;;;;;12.80;3.63;;;;;;;7.23;66.96;100547.34;5046991;28;20473;-74
2023/03/17 04:51:43;;;;;;;17.20;4.05;;;;;;;7.22;67.02;100543.84;5046710;28;20056;-74
2023/03/17 04:54:08;;;;;;;17.75;3.90;;;;;;;7.22;67.06;100542.97;5045650;28;20120;-74
2023/03/17 04:56:35;;;;;;;13.57;3.67;;;;;;;7.22;67.40;100541.16;5051016;28;20037;-74
2023/03/17 04:59:00;;;;;;;13.35;3.85;;;;;;;7.22;67.59;100537.63;5053105;28;20163;-74
2023/03/17 05:01:26;;;;;;;11.82;3.85;;;;;;;7.21;68.43;100538.59;5043225;28;20057;-74
2023/03/17 05:03:51;;;;;;;13.52;4.15;;;;;;;7.20;67.28;100529.69;5040472;28;20472;-74
2023/03/17 05:06:16;;;;;;;14.65;3.95;;;;;;;7.20;67.09;100520.84;5046129;28;20094;-74
2023/03/17 05:08:45;;;;;;;18.05;4.35;;;;;;;7.22;67.05;100519.78;5052410;28;20119;-74
2023/03/17 05:11:11;;;;;;;18.27;4.22;;;;;;;7.20;66.83;100524.34;5053269;28;20115;-74
2023/03/17 05:13:37;;;;;;;14.02;3.63;;;;;;;7.22;67.21;100513.56;5055288;28;20020;-74
2023/03/17 05:16:02;;;;;;;20.73;4.53;;;;;;;7.20;67.38;100516.34;5057415;28;20091;-74
2023/03/17 05:18:28;;;;;;;17.30;4.25;;;;;;;7.22;67.24;100524.25;5058734;28;20055;-74
2023/03/17 05:20:53;;;;;;;21.25;4.97;;;;;;;7.22;67.74;100530.47;5057388;28;20028;-74
2023/03/17 05:23:19;;;;;;;15.80;4.72;;;;;;;7.21;67.60;100527.91;5047294;28;20067;-74
2023/03/17 05:25:45;;;;;;;22.48;5.22;;;;;;;7.17;69.84;100535.25;5047334;28;20035;-74
2023/03/17 05:28:11;;;;;;;15.10;3.97;;;;;;;7.15;68.73;100539.84;5039038;28;20030;-74
2023/03/17 05:30:36;;;;;;;15.68;4.13;;;;;;;7.13;69.71;100539.94;5046140;28;20120;-74
2023/03/17 05:33:02;;;;;;;17.08;4.65;;;;;;;7.13;68.91;100547.97;5052244;28;20028;-74
2023/03/17 05:35:27;;;;;;;16.35;4.40;;;;;;;7.12;69.07;100543.56;5052234;28;20287;-74
2023/03/17 05:37:53;;;;;;;18.40;4.65;;;;;;;7.11;69.46;100546.34;5059181;28;20045;-74
2023/03/17 05:40:18;;;;;;;17.70;4.90;;;;;;;7.10;68.44;100547.28;5053552;28;20029;-74
2023/03/17 05:42:44;;;;;;;18.80;4.78;;;;;;;7.08;68.61;100538.50;5055128;28;20469;-74
2023/03/17 05:45:10;;;;;;;16.40;4.43;;;;;;;7.10;68.49;100539.25;5060072;28;20095;-74
2023/03/17 05:47:36;;;;;;;17.33;4.35;;;;;;;7.11;68.66;100535.66;5055660;28;20036;-74
2023/03/17 05:50:03;;;;;;;19.20;4.90;;;;;;;7.09;68.46;100522.38;5054894;28;20036;-74
2023/03/17 05:52:29;;;;;;;16.77;4.35;;;;;;;7.11;68.17;100532.97;5057378;28;20556;-74
2023/03/17 05:54:55;;;;;;;15.20;4.28;;;;;;;7.09;68.58;100534.91;5053345;28;20032;-74
2023/03/17 05:57:21;;;;;;;15.23;4.22;;;;;;;7.12;68.79;100540.03;5062295;28;20162;-74
2023/03/17 05:59:46;;;;;;;14.93;3.67;;;;;;;7.10;68.75;100532.13;5059510;28;20162;-74
2023/03/17 06:02:12;;;;;;;18.30;4.22;;;;;;;7.08;68.86;100526.00;5043571;28;20037;-74
2023/03/17 06:04:38;;;;;;;14.45;4.00;;;;;;;7.08;69.22;100531.34;5057576;28;20124;-74
2023/03/17 06:07:05;;;;;;;17.25;4.53;;;;;;;7.06;69.37;100530.59;5051463;28;20033;-74
2023/03/17 06:09:30;;;;;;;18.17;4.65;;;;;;;7.07;68.86;100536.78;5041833;28;20104;-74
2023/03/17 06:11:56;;;;;;;22.13;4.55;;;;;;;7.07;69.62;100531.44;5051037;28;20112;-74
2023/03/17 06:14:22;;;;;;;12.60;4.18;;;;;;;7.06;69.59;100524.38;5032825;28;20487;-74
2023/03/17 06:16:47;;;;;;;17.83;4.63;;;;;;;7.07;69.11;100534.13;5049300;28;20428;-74
2023/03/17 06:19:12;;;;;;;15.30;4.40;;;;;;;7.06;69.70;100535.06;5039862;28;20092;-74
2023/03/17 06:21:38;;;;;;;14.50;4.22;;;;;;;7.09;69.53;100532.22;5043337;28;20024;-74
2023/03/17 06:24:03;;;;;;;15.90;4.38;;;;;;;7.09;69.63;100533.06;5050580;28;20025;-74
2023/03/17 06:26:29;;;;;;;16.45;4.35;;;;;;;7.08;70.05;100544.72;5052401;28;20361;-74
2023/03/17 06:28:54;;;;;;;14.85;4.30;;;;;;;7.11;70.41;100543.66;5057980;28;20142;-74
2023/03/17 06:31:21;;;;;;;20.90;4.80;;;;;;;7.11;70.37;100547.19;5041753;28;20444;-74
2023/03/17 06:33:46;;;;;;;18.10;4.43;;;;;;;7.15;69.78;100546.03;5048004;28;20020;-74
2023/03/17 06:36:12;;;;;;;18.67;4.45;;;;;;;7.17;70.07;100549.50;5050976;28;20356;-74
2023/03/17 06:38:38;;;;;;;15.77;4.75;;;;;;;7.20;69.68;100540.38;5045025;28;20028;-74
2023/03/17 06:41:03;;;;;;;21.88;5.78;;;;;;;7.23;69.76;100545.53;5046516;28;20136;-74
2023/03/17 06:43:29;;;;;;;23.08;8.85;;;;;;;7.27;69.48;100540.88;5040821;28;20440;-74
2023/03/17 06:45:54;;;;;;;17.33;5.95;;;;;;;7.29;69.44;100531.78;5050266;28;20036;-74
2023/03/17 06:48:19;;;;;;;17.95;5.32;;;;;;;7.32;70.10;100542.28;5045315;28;20021;-74
2023/03/17 06:50:46;;;;;;;17.60;5.80;;;;;;;7.34;70.11;100537.69;5052410;28;20425;-74
2023/03/17 06:53:12;;;;;;;18.20;4.88;;;;;;;7.38;69.78;100541.03;5056774;28;20025;-74
2023/03/17 06:55:37;;;;;;;18.33;5.00;;;;;;;7.40;69.81;100533.75;5052540;28;20028;-74
2023/03/17 06:58:03;;;;;;;18.33;5.60;;;;;;;7.44;70.32;100537.97;5046828;28;20064;-74
2023/03/17 07:00:29;;;;;;;14.32;4.40;;;;;;;7.49;70.18;100548.34;5050045;28;20032;-74
2023/03/17 07:02:54;;;;;;;17.55;4.70;;;;;;;7.53;69.33;100537.34;5050867;28;20064;-74
2023/03/17 07:05:20;;;;;;;15.40;4.45;;;;;;;7.57;69.63;100542.50;5044575;28;20080;-74
2023/03/17 07:07:45;;;;;;;20.67;6.65;;;;;;;7.62;69.59;100543.06;5041595;28;20119;-74
2023/03/17 07:10:12;;;;;;;19.80;5.53;;;;;;;7.66;69.45;100542.75;5035020;28;20035;-74
2023/03/17 07:12:38;;;;;;;16.92;4.72;;;;;;;7.70;69.13;100541.59;5037071;28;20128;-74
2023/03/17 07:15:04;;;;;;;19.17;4.90;;;;;;;7.74;69.62;100541.38;5038354;28;20115;-74
2023/03/17 07:17:29;;;;;;;21.25;4.82;;;;;;;7.79;69.72;100549.94;5035307;28;20116;-74
2023/03/17 07:19:54;;;;;;;14.98;4.28;;;;;;;7.83;69.60;100547.00;5037669;28;20456;-74
2023/03/17 07:22:20;;;;;;;19.10;4.93;;;;;;;7.88;69.26;100554.72;5035989;28;20086;-74
2023/03/17 07:24:47;;;;;;;16.80;4.78;;;;;;;7.92;69.17;100539.28;5040092;28;20496;-74
2023/03/17 07:27:13;;;;;;;17.05;4.60;;;;;;;7.95;69.10;100542.63;5039978;28;20512;-74
2023/03/17 07:29:39;;;;;;;14.73;4.63;;;;;;;8.00;69.38;100536.97;5040860;28;20025;-74
2023/03/17 07:32:06;;;;;;;21.88;4.85;;;;;;;8.05;68.17;100534.81;5038057;28;20063;-74
2023/03/17 07:34:32;;;;;;;15.85;4.18;;;;;;;8.09;68.64;100519.44;5036286;28;20025;-74
2023/03/17 07:36:57;;;;;;;17.77;4.38;;;;;;;8.15;68.73;100525.19;5037354;28;20030;-74
2023/03/17 07:39:22;;;;;;;16.55;4.78;;;;;;;8.20;67.73;100522.25;5038075;28;20055;-74
2023/03/17 07:41:53;;;;;;;15.75;4.22;;;;;;;8.24;67.53;100518.34;5049892;28;20024;-74
2023/03/17 07:44:19;;;;;;;17.35;4.47;;;;;;;8.29;67.65;100521.59;5052763;28;20468;-74
2023/03/17 07:46:45;;;;;;;15.60;4.30;;;;;;;8.32;67.40;100518.69;5047632;28;20100;-74
2023/03/17 07:49:11;;;;;;;14.30;3.60;;;;;;;8.37;67.75;100524.56;5058478;28;20032;-74
2023/03/17 07:51:42;;;;;;;17.98;4.50;;;;;;;8.40;68.32;100535.09;5054715;28;20473;-74
2023/03/17 07:54:09;;;;;;;11.90;3.50;;;;;;;8.43;66.69;100527.81;5053760;28;20028;-74
2023/03/17 07:56:35;;;;;;;13.63;4.22;;;;;;;8.48;68.03;100526.56;5043291;28;20475;-74
2023/03/17 07:59:00;;;;;;;15.90;4.10;;;;;;;8.51;68.09;100530.84;5060007;28;20073;-74
2023/03/17 08:01:27;;;;;;;15.80;4.30;;;;;;;8.55;67.90;100554.63;5064015;28;20047;-74
2023/03/17 08:03:53;;;;;;;12.80;3.90;;;;;;;8.59;67.69;100544.53;5054964;28;20036;-74
2023/03/17 08:06:19;;;;;;;14.23;4.18;;;;;;;8.64;68.01;100547.78;5041236;28;20029;-74
2023/03/17 08:08:44;;;;;;;17.17;4.07;;;;;;;8.67;67.30;100531.47;5058968;28;20336;-74
2023/03/17 08:11:10;;;;;;;16.23;4.50;;;;;;;8.71;67.62;100519.59;5050939;28;20024;-74
2023/03/17 08:13:35;;;;;;;14.63;4.03;;;;;;;8.75;67.04;100533.59;5054515;28;20036;-74
2023/03/17 08:16:01;;;;;;;15.38;4.50;;;;;;;8.78;67.77;100538.75;5065763;28;20029;-74
2023/03/17 08:18:26;;;;;;;13.52;3.83;;;;;;;8.82;67.62;100534.91;5061029;28;20469;-74
2023/03/17 08:20:52;;;;;;;12.95;4.38;;;;;;;8.87;68.28;100534.56;5054601;28;20108;-74
2023/03/17 08:23:21;;;;;;;14.27;3.88;;;;;;;8.94;67.37;100549.25;5064937;28;20024;-74
2023/03/17 08:25:47;;;;;;;15.50;4.43;;;;;;;8.97;67.44;100543.66;5061659;28;20173;-74
2023/03/17 08:28:14;;;;;;;14.95;4.47;;;;;;;9.04;67.70;100542.25;5062837;28;20626;-74
2023/03/17 08:30:43;;;;;;;13.75;4.57;;;;;;;9.10;67.34;100533.75;5060129;28;20033;-74
2023/03/17 08:33:09;;;;;;;17.48;4.85;;;;;;;9.17;66.53;100530.66;5054176;28;20381;-74
2023/03/17 08:35:36;;;;;;;13.02;3.85;;;;;;;9.24;65.88;100529.25;5063949;28;20107;-74
2023/03/17 08:38:02;;;;;;;12.70;4.28;;;;;;;9.30;66.82;100520.75;5057814;28;20108;-74
2023/03/17 08:40:27;;;;;;;14.57;3.80;;;;;;;9.33;67.16;100512.47;5064391;28;20146;-74
2023/03/17 08:42:53;;;;;;;15.60;4.47;;;;;;;9.39;66.19;100500.44;5066973;28;20166;-74
2023/03/17 08:45:18;;;;;;;15.48;5.00;;;;;;;9.44;67.46;100512.53;5054330;28;20029;-74
2023/03/17 08:47:45;;;;;;;14.45;4.75;;;;;;;9.50;66.35;100521.09;5056889;28;20024;-75
2023/03/17 08:50:17;;;;;;;12.02;4.30;;;;;;;9.57;66.42;100525.88;5058886;28;20029;-74
2023/03/17 08:52:42;;;;;;;15.70;4.55;;;;;;;9.61;65.86;100529.22;5053507;28;20543;-74
2023/03/17 08:55:07;;;;;;;14.70;4.45;;;;;;;9.67;67.33;100530.59;5055176;28;20028;-74
2023/03/17 08:57:33;;;;;;;14.80;4.72;;;;;;;9.73;66.46;100530.97;5051656;28;20373;-74
2023/03/17 08:59:59;;;;;;;15.93;4.35;;;;;;;9.79;66.37;100525.16;5058661;28;20035;-74
2023/03/17 09:02:24;;;;;;;14.10;4.35;;;;;;;9.88;67.92;100515.56;5059676;28;20408;-74
2023/03/17 09:04:50;;;;;;;13.98;4.43;;;;;;;9.97;66.78;100517.53;5063316;28;20060;-74
2023/03/17 09:07:15;;;;;;;13.82;4.18;;;;;;;10.04;66.99;100517.06;5064043;28;20060;-74
2023/03/17 09:09:41;;;;;;;15.38;4.28;;;;;;;10.12;66.79;100510.13;5063393;28;20456;-74
2023/03/17 09:12:08;;;;;;;14.13;3.95;;;;;;;10.19;66.56;100515.00;5059640;28;20033;-75
2023/03/17 09:14:34;;;;;;;15.98;4.60;;;;;;;10.28;65.61;100514.31;5058296;28;20031;-74
2023/03/17 09:16:59;;;;;;;13.13;3.72;;;;;;;10.34;66.29;100513.00;5055114;28;20040;-74
2023/03/17 09:19:25;;;;;;;14.43;4.18;;;;;;;10.38;65.57;100515.34;5059617;28;20142;-74
2023/03/17 09:21:50;;;;;;;12.25;4.00;;;;;;;10.44;66.00;100517.56;5058751;28;20111;-74
2023/03/17 09:24:17;;;;;;;10.63;3.55;;;;;;;10.49;65.88;100512.66;5057566;28;20099;-74
2023/03/17 09:26:42;;;;;;;17.30;4.60;;;;;;;10.56;66.06;100523.78;5055512;28;20063;-74
2023/03/17 09:29:07;;;;;;;12.02;3.90;;;;;;;10.63;66.13;100514.28;5044944;28;20029;-74
2023/03/17 09:31:35;;;;;;;11.00;3.58;;;;;;;10.72;66.21;100523.44;5048501;28;20034;-74
2023/03/17 09:34:01;;;;;;;12.40;3.88;;;;;;;10.78;65.97;100503.28;5058571;28;20440;-74
2023/03/17 09:36:26;;;;;;;11.05;3.60;;;;;;;10.86;64.64;100502.66;5060692;28;20060;-74
2023/03/17 09:38:51;;;;;;;11.70;4.00;;;;;;;10.94;64.88;100495.69;5062408;28;20058;-74
2023/03/17 09:41:20;;;;;;;13.15;3.80;;;;;;;11.01;64.84;100499.59;5050985;28;20561;-74
2023/03/17 09:43:51;;;;;;;11.82;3.80;;;;;;;11.05;65.08;100505.56;5049766;28;20429;-74
2023/03/17 09:46:51;;;;;;;12.27;3.88;;;;;;;11.07;66.08;100506.31;5054106;28;20398;-74
2023/03/17 09:49:24;;;;;;;11.35;4.00;;;;;;;11.12;65.56;100516.69;5054360;28;20025;-75
2023/03/17 09:51:50;;;;;;;13.82;3.95;;;;;;;11.11;65.52;100518.56;5050657;28;20392;-74
2023/03/17 09:54:26;;;;;;;12.80;4.18;;;;;;;11.13;64.95;100516.56;5053726;28;20041;-74
2023/03/17 09:57:17;;;;;;;14.77;4.22;;;;;;;11.15;66.39;100527.22;5050519;28;20048;-74
2023/03/17 10:00:00;;;;;;;13.23;4.15;;;;;;;11.16;65.71;100527.09;5058582;28;20400;-74
2023/03/17 10:02:32;;;;;;;13.93;4.03;;;;;;;11.19;64.14;100537.59;5050047;28;20483;-75
2023/03/17 10:04:58;;;;;;;14.85;4.75;;;;;;;11.22;64.26;100536.50;5053470;28;20135;-74
2023/03/17 10:08:14;;;;;;;11.68;3.97;;;;;;;11.22;65.07;100535.66;5052279;28;20051;-74
2023/03/17 10:10:48;;;;;;;12.77;4.20;;;;;;;11.25;65.38;100530.84;5051782;28;20479;-74
2023/03/17 10:13:16;;;;;;;12.20;4.07;;;;;;;11.25;65.81;100530.84;5049940;28;20025;-74
2023/03/17 10:15:50;;;;;;;14.43;4.22;;;;;;;11.26;65.54;100553.22;5046950;28;20029;-74
2023/03/17 10:18:17;;;;;;;14.20;4.18;;;;;;;11.28;64.70;100562.88;5042154;28;20563;-75
2023/03/17 10:21:18;;;;;;;15.10;4.22;;;;;;;11.31;65.96;100554.56;5047559;28;20432;-75
2023/03/17 10:23:45;;;;;;;13.98;4.10;;;;;;;11.35;65.48;100563.25;5044353;28;20148;-75
2023/03/17 10:26:23;;;;;;;11.82;3.65;;;;;;;11.41;65.52;100578.06;5048589;28;20107;-75
2023/03/17 10:28:49;;;;;;;11.27;3.83;;;;;;;11.46;65.37;100571.28;5045806;28;20039;-75
2023/03/17 10:31:17;;;;;;;15.00;3.90;;;;;;;11.49;65.90;100576.44;5054131;28;20032;-74
2023/03/17 10:33:47;;;;;;;11.13;4.05;;;;;;;11.58;65.87;100573.97;5042829;28;20024;-75
2023/03/17 10:36:14;;;;;;;;;;;;;;;11.60;66.24;100569.34;5053455;28;20062;-75
2023/03/17 10:38:39;;;;;;;16.48;4.75;;;;;;;11.64;65.33;100560.00;5051222;28;19987;-75
2023/03/17 10:41:08;;;;;;;12.48;3.60;;;;;;;11.70;64.45;100559.53;5056416;28;20036;-75
2023/03/17 10:43:42;;;;;;;14.32;3.92;;;;;;;11.79;64.26;100549.81;5054937;28;20491;-75
2023/03/17 10:46:17;;;;;;;13.13;3.30;;;;;;;11.87;63.39;100555.41;5054734;28;20032;-75
2023/03/17 10:48:51;;;;;;;10.60;3.55;;;;;;;11.96;64.01;100553.81;5050505;28;20048;-75
2023/03/17 10:51:23;;;;;;;10.48;3.45;;;;;;;12.02;64.13;100558.69;5054281;28;20392;-75
2023/03/17 10:53:52;;;;;;;12.60;4.22;;;;;;;12.13;65.17;100561.31;5052042;28;20025;-75
2023/03/17 10:56:23;;;;;;;13.75;4.10;;;;;;;12.16;63.64;100554.84;5060703;28;20043;-75
2023/03/17 10:58:50;;;;;;;14.60;4.50;;;;;;;12.21;62.64;100556.16;5047207;28;20031;-75
2023/03/17 11:01:33;;;;;;;15.65;4.70;;;;;;;12.25;63.24;100548.66;5054332;28;20040;-75
2023/03/17 11:04:01;;;;;;;13.10;4.00;;;;;;;12.29;61.99;100543.88;5046323;28;20029;-75
2023/03/17 11:06:41;;;;;;;12.02;3.95;;;;;;;12.36;62.90;100534.28;5042777;28;20387;-75
2023/03/17 11:09:09;;;;;;;15.85;4.55;;;;;;;12.41;62.13;100540.09;5054318;28;20360;-75
2023/03/17 11:11:46;;;;;;;13.17;4.23;;;;;;;12.46;62.54;100545.97;5050330;28;20097;-75
2023/03/17 11:14:17;;;;;;;13.02;3.72;;;;;;;12.51;62.47;100527.53;5050827;28;20029;-75
2023/03/17 11:16:53;;;;;;;17.35;5.38;;;;;;;12.59;62.42;100519.66;5052334;28;20542;-75
2023/03/17 11:19:25;;;;;;;13.88;5.10;;;;;;;12.65;60.63;100520.97;5048304;28;20049;-75
2023/03/17 11:22:03;;;;;;;18.30;4.32;;;;;;;12.69;61.98;100525.06;5049965;28;20048;-75
2023/03/17 11:24:31;;;;;;;12.23;4.22;;;;;;;12.72;62.44;100516.75;5047103;28;20029;-75
2023/03/17 11:27:03;;;;;;;15.77;4.55;;;;;;;12.75;64.19;100518.28;5043384;28;20029;-75